Time;durP1;ratioP1;P1;durP2;ratioP2;P2;SDS_P1;SDS_P2;PMS_P1;PMS_P2;Temp;Humidity;BMP_temperature;BMP_pressure;BME280_temperature;BME280_humidity;BME280_pressure;Samples;Min_cycle;Max_cycle;Signal;HPM_P1;HPM_P2
2023/01/06 00:01:24;;;;;;;2.63;1.57;;;12.30;99.90;;;;;;5114612;28;20508;-60
2023/01/06 00:03:52;;;;;;;2.87;1.60;;;12.30;99.90;;;;;;5114739;28;20474;-60
2023/01/06 00:06:21;;;;;;;4.07;1.50;;;12.30;99.90;;;;;;5114257;28;20934;-60
2023/01/06 00:08:48;;;;;;;2.73;1.67;;;12.30;99.90;;;;;;5114600;28;20546;-60
2023/01/06 00:11:15;;;;;;;3.77;1.80;;;12.30;99.90;;;;;;5114477;28;20997;-60
2023/01/06 00:13:42;;;;;;;3.00;1.60;;;12.30;99.90;;;;;;5114517;28;20446;-60
2023/01/06 00:16:11;;;;;;;7.77;1.50;;;12.30;99.90;;;;;;5114779;28;20458;-60
2023/01/06 00:18:40;;;;;;;4.33;1.77;;;12.30;99.90;;;;;;5114607;28;20451;-61
2023/01/06 00:21:08;;;;;;;3.60;1.30;;;12.30;99.90;;;;;;5114581;28;20474;-60
2023/01/06 00:23:35;;;;;;;4.10;1.53;;;12.20;99.90;;;;;;5114399;28;20457;-60
2023/01/06 00:26:03;;;;;;;3.67;1.37;;;12.10;99.90;;;;;;5114542;28;20466;-60
2023/01/06 00:28:30;;;;;;;2.53;1.40;;;12.10;99.90;;;;;;5114520;28;20449;-60
2023/01/06 00:30:57;;;;;;;3.63;1.27;;;12.00;99.90;;;;;;5114509;28;20435;-61
2023/01/06 00:33:24;;;;;;;1.33;1.10;;;12.00;99.90;;;;;;5114413;28;20822;-60
2023/01/06 00:35:52;;;;;;;1.30;0.83;;;12.00;99.90;;;;;;5114825;28;20458;-60
2023/01/06 00:38:19;;;;;;;2.80;0.80;;;12.00;99.90;;;;;;5114619;28;20450;-60
2023/01/06 00:40:46;;;;;;;1.60;0.90;;;12.10;99.90;;;;;;5114082;28;20455;-60
2023/01/06 00:43:12;;;;;;;4.70;1.20;;;12.10;99.90;;;;;;5114926;28;20483;-60
2023/01/06 00:45:39;;;;;;;6.77;1.80;;;12.20;99.90;;;;;;5115989;28;20476;-60
2023/01/06 00:48:06;;;;;;;9.20;1.63;;;12.20;99.90;;;;;;5118686;28;20461;-60
2023/01/06 00:50:33;;;;;;;4.30;1.40;;;12.20;99.90;;;;;;5121046;28;20461;-60
2023/01/06 00:53:01;;;;;;;1.67;1.30;;;12.30;99.90;;;;;;5120606;28;20469;-60
2023/01/06 00:55:28;;;;;;;2.23;1.40;;;12.40;99.90;;;;;;5120714;28;20451;-60
2023/01/06 00:57:55;;;;;;;5.47;1.30;;;12.40;99.90;;;;;;5120682;28;20464;-60
2023/01/06 01:00:22;;;;;;;9.20;1.80;;;12.40;99.90;;;;;;5120933;28;20457;-60
2023/01/06 01:02:49;;;;;;;6.20;1.87;;;12.40;99.90;;;;;;5120822;28;20497;-60
2023/01/06 01:05:16;;;;;;;8.00;1.63;;;12.40;99.90;;;;;;5120697;28;20501;-60
2023/01/06 01:07:42;;;;;;;10.67;1.97;;;12.50;99.90;;;;;;5120353;28;21032;-60
2023/01/06 01:10:11;;;;;;;4.10;1.43;;;12.50;99.90;;;;;;5120515;28;20451;-60
2023/01/06 01:12:38;;;;;;;7.13;1.80;;;12.50;99.90;;;;;;5120344;28;20466;-60
2023/01/06 01:15:06;;;;;;;7.20;2.00;;;12.50;99.90;;;;;;5120105;28;20442;-60
2023/01/06 01:17:33;;;;;;;5.53;1.80;;;12.50;99.90;;;;;;5120407;28;20455;-59
2023/01/06 01:19:59;;;;;;;4.10;1.67;;;12.50;99.90;;;;;;5120401;28;20446;-60
2023/01/06 01:22:28;;;;;;;6.63;2.03;;;12.50;99.90;;;;;;5120224;28;20531;-60
2023/01/06 01:24:55;;;;;;;6.70;1.70;;;12.50;99.90;;;;;;5120383;28;20477;-60
2023/01/06 01:27:23;;;;;;;5.00;1.50;;;12.50;99.90;;;;;;5120324;28;20455;-60
2023/01/06 01:29:50;;;;;;;6.97;2.10;;;12.50;99.90;;;;;;5120253;28;20447;-60
2023/01/06 01:32:16;;;;;;;7.77;1.67;;;12.50;99.90;;;;;;5119852;28;20809;-60
2023/01/06 01:34:43;;;;;;;10.30;1.77;;;12.50;99.90;;;;;;5120265;28;20454;-60
2023/01/06 01:37:10;;;;;;;3.50;1.83;;;12.40;99.90;;;;;;5120180;28;20454;-60
2023/01/06 01:39:36;;;;;;;6.53;1.73;;;12.40;99.90;;;;;;5119908;28;20466;-60
2023/01/06 01:42:03;;;;;;;5.03;1.70;;;12.40;99.90;;;;;;5119715;28;20489;-61
2023/01/06 01:44:54;;;;;;;6.30;1.60;;;12.40;99.90;;;;;;5119980;28;20443;-61
2023/01/06 01:47:26;;;;;;;9.87;1.90;;;12.40;99.90;;;;;;5120215;28;20430;-60
2023/01/06 01:49:56;;;;;;;7.17;1.67;;;12.40;99.90;;;;;;5120168;28;20442;-61
2023/01/06 01:52:23;;;;;;;2.83;1.70;;;12.40;99.90;;;;;;5120969;28;20458;-61
2023/01/06 01:54:52;;;;;;;4.23;1.57;;;12.40;99.90;;;;;;5120113;28;20454;-61
2023/01/06 01:57:23;;;;;;;5.77;1.20;;;12.40;99.90;;;;;;5119983;28;20820;-61
2023/01/06 01:59:51;;;;;;;4.40;1.40;;;12.40;99.90;;;;;;5117201;28;20442;-60
2023/01/06 02:02:20;;;;;;;6.17;1.70;;;12.40;99.90;;;;;;5116324;28;21000;-61
2023/01/06 02:04:51;;;;;;;4.13;1.43;;;12.40;99.90;;;;;;5116763;28;20457;-61
2023/01/06 02:07:18;;;;;;;4.83;1.70;;;12.40;99.90;;;;;;5116615;28;20435;-61
2023/01/06 02:09:53;;;;;;;6.43;1.70;;;12.40;99.90;;;;;;5116656;28;20454;-61
2023/01/06 02:12:19;;;;;;;3.40;1.30;;;12.40;99.90;;;;;;5116447;28;20469;-61
2023/01/06 02:14:47;;;;;;;3.60;1.90;;;12.40;99.90;;;;;;5116626;28;20457;-61
2023/01/06 02:17:43;;;;;;;5.43;1.77;;;12.40;99.90;;;;;;5116540;28;20450;-60
2023/01/06 02:20:40;;;;;;;5.77;1.53;;;12.40;99.90;;;;;;5116464;28;20438;-60
2023/01/06 02:23:35;;;;;;;7.43;2.30;;;12.40;99.90;;;;;;5081598;28;20487;-60
2023/01/06 02:26:35;;;;;;;5.67;1.60;;;12.40;99.90;;;;;;5116297;28;20431;-60
2023/01/06 02:29:41;;;;;;;2.23;1.07;;;12.30;99.90;;;;;;5116360;28;20524;-60
2023/01/06 02:32:18;;;;;;;7.03;1.80;;;12.30;99.90;;;;;;5116106;28;20470;-60
2023/01/06 02:34:59;;;;;;;5.23;1.47;;;12.30;99.80;;;;;;5116180;28;20431;-60
2023/01/06 02:37:40;;;;;;;7.63;1.53;;;12.30;99.40;;;;;;5116294;28;20440;-60
2023/01/06 02:40:24;;;;;;;3.23;0.93;;;12.20;98.50;;;;;;5116093;28;20462;-60
2023/01/06 02:43:02;;;;;;;2.87;1.40;;;12.20;98.10;;;;;;5116151;28;20494;-60
2023/01/06 02:45:38;;;;;;;3.33;0.90;;;12.10;97.90;;;;;;5116073;28;20435;-60
2023/01/06 02:48:11;;;;;;;6.03;1.20;;;12.10;97.70;;;;;;5115882;28;20915;-60
2023/01/06 02:50:41;;;;;;;4.83;1.00;;;12.10;97.70;;;;;;5115959;28;20443;-60
2023/01/06 02:53:17;;;;;;;2.70;1.20;;;12.20;97.80;;;;;;5116168;28;20439;-60
2023/01/06 02:55:46;;;;;;;2.70;1.30;;;12.20;98.00;;;;;;5115833;28;20499;-60
2023/01/06 02:58:18;;;;;;;3.43;1.17;;;12.10;97.90;;;;;;5115549;28;20939;-60
2023/01/06 03:00:50;;;;;;;5.67;1.37;;;12.20;98.40;;;;;;5115818;28;20427;-61
2023/01/06 03:03:22;;;;;;;5.50;1.20;;;12.20;98.50;;;;;;5115771;28;20474;-60
2023/01/06 03:05:53;;;;;;;2.10;0.90;;;12.20;98.80;;;;;;5115737;28;20428;-61
2023/01/06 03:08:24;;;;;;;3.60;1.10;;;12.20;99.00;;;;;;5115696;28;20436;-60
2023/01/06 03:10:53;;;;;;;6.60;1.97;;;12.30;99.00;;;;;;5114386;28;20454;-61
2023/01/06 03:13:26;;;;;;;5.67;1.50;;;12.30;99.00;;;;;;5115407;28;20430;-60
2023/01/06 03:15:53;;;;;;;8.03;1.60;;;12.30;99.30;;;;;;5115489;28;20435;-61
2023/01/06 03:18:21;;;;;;;6.07;1.90;;;12.20;99.40;;;;;;5115471;28;20462;-60
2023/01/06 03:20:50;;;;;;;6.13;1.70;;;12.30;99.60;;;;;;5115329;28;20435;-61
2023/01/06 03:23:17;;;;;;;5.00;1.30;;;12.30;99.90;;;;;;5115136;28;20510;-60
2023/01/06 03:25:44;;;;;;;6.07;1.47;;;12.40;99.90;;;;;;5115010;28;20840;-60
2023/01/06 03:28:10;;;;;;;6.23;1.50;;;12.40;99.90;;;;;;5115293;28;20435;-60
2023/01/06 03:30:44;;;;;;;4.37;1.23;;;12.40;99.90;;;;;;5115286;28;20443;-60
2023/01/06 03:33:19;;;;;;;6.90;1.67;;;12.40;99.90;;;;;;5115138;28;20424;-61
2023/01/06 03:36:01;;;;;;;6.87;1.50;;;12.40;99.90;;;;;;5114761;28;20819;-61
2023/01/06 03:38:36;;;;;;;6.83;1.57;;;12.40;99.90;;;;;;5115015;28;20431;-60
2023/01/06 03:41:14;;;;;;;5.47;1.90;;;12.40;99.90;;;;;;5114570;28;20907;-61
2023/01/06 03:43:48;;;;;;;9.63;1.40;;;12.40;99.90;;;;;;5114608;28;20966;-61
2023/01/06 03:46:25;;;;;;;7.90;1.40;;;12.40;99.90;;;;;;5114884;28;20426;-60
2023/01/06 03:48:58;;;;;;;3.77;1.63;;;12.40;99.90;;;;;;5114732;28;20437;-60
2023/01/06 03:51:45;;;;;;;5.23;1.60;;;12.40;99.90;;;;;;5114728;28;20455;-60
2023/01/06 03:54:22;;;;;;;2.63;1.57;;;12.30;99.90;;;;;;5111492;28;20458;-61
2023/01/06 03:56:52;;;;;;;3.60;1.00;;;12.30;99.90;;;;;;5114272;28;20800;-60
2023/01/06 03:59:21;;;;;;;5.00;1.47;;;12.30;99.90;;;;;;5114241;28;20447;-60
2023/01/06 04:01:48;;;;;;;3.80;1.10;;;12.30;99.90;;;;;;5114317;28;20471;-60
2023/01/06 04:04:16;;;;;;;4.53;1.03;;;12.30;99.60;;;;;;5114426;28;20447;-60
2023/01/06 04:06:45;;;;;;;5.10;1.23;;;12.30;99.30;;;;;;5114480;28;20481;-60
2023/01/06 04:09:12;;;;;;;3.33;0.90;;;12.30;99.20;;;;;;5114426;28;20447;-60
2023/01/06 04:14:23;;;;;;;6.17;1.57;;;12.30;98.80;;;;;;5114485;28;20399;-60
2023/01/06 04:16:50;;;;;;;4.27;0.93;;;12.30;98.40;;;;;;5114050;28;20968;-60
2023/01/06 04:19:17;;;;;;;2.63;1.20;;;12.30;98.20;;;;;;5114289;28;20451;-60
2023/01/06 04:21:45;;;;;;;2.87;0.60;;;12.20;98.10;;;;;;5113807;28;20463;-60
2023/01/06 04:24:12;;;;;;;2.60;0.90;;;12.20;98.20;;;;;;5114915;28;20475;-60
2023/01/06 04:26:38;;;;;;;1.40;1.23;;;12.20;98.10;;;;;;5114306;28;20855;-60
2023/01/06 04:29:05;;;;;;;2.63;0.93;;;12.10;98.30;;;;;;5114259;28;20454;-60
2023/01/06 04:31:32;;;;;;;5.10;0.97;;;12.10;98.40;;;;;;5113902;28;20459;-60
2023/01/06 04:33:58;;;;;;;2.30;0.70;;;12.10;98.50;;;;;;5113875;28;20968;-60
2023/01/06 04:36:25;;;;;;;3.37;0.97;;;12.10;98.70;;;;;;5114333;28;20521;-60
2023/01/06 04:38:53;;;;;;;4.30;0.73;;;12.10;98.50;;;;;;5114061;28;20447;-60
2023/01/06 04:41:20;;;;;;;5.67;0.90;;;12.10;98.70;;;;;;5113695;28;20478;-59
2023/01/06 04:43:48;;;;;;;2.27;0.90;;;12.10;98.60;;;;;;5114079;28;20478;-59
2023/01/06 04:46:14;;;;;;;1.80;0.87;;;12.10;98.70;;;;;;5113675;28;20940;-59
2023/01/06 04:48:41;;;;;;;2.53;0.90;;;12.00;98.70;;;;;;5113995;28;20442;-60
2023/01/06 04:51:09;;;;;;;2.70;0.77;;;12.00;99.00;;;;;;5113787;28;20478;-60
2023/01/06 04:53:37;;;;;;;2.37;0.77;;;12.00;99.00;;;;;;5113901;28;20451;-60
2023/01/06 04:56:07;;;;;;;2.60;0.90;;;12.00;99.20;;;;;;5113883;28;20490;-60
2023/01/06 04:58:34;;;;;;;1.07;0.67;;;12.00;99.20;;;;;;5113984;28;20484;-59
2023/01/06 05:01:01;;;;;;;7.00;1.17;;;11.90;99.40;;;;;;5113864;28;20451;-60
2023/01/06 05:03:28;;;;;;;3.33;1.33;;;11.80;99.60;;;;;;5114131;28;20482;-60
2023/01/06 05:05:55;;;;;;;2.57;0.70;;;11.80;99.80;;;;;;5114170;28;20443;-60
2023/01/06 05:08:21;;;;;;;3.43;0.93;;;11.80;99.90;;;;;;5113564;28;20867;-59
2023/01/06 05:10:48;;;;;;;4.20;1.17;;;11.90;99.90;;;;;;5113823;28;20447;-60
2023/01/06 05:13:16;;;;;;;1.13;1.00;;;11.90;99.90;;;;;;5114117;28;20443;-60
2023/01/06 05:15:43;;;;;;;1.83;1.27;;;11.90;99.90;;;;;;5113587;28;20794;-60
2023/01/06 05:18:10;;;;;;;5.47;1.03;;;11.90;99.70;;;;;;5113988;28;20477;-60
2023/01/06 05:20:36;;;;;;;2.80;1.00;;;11.90;99.70;;;;;;5113721;28;20522;-60
2023/01/06 05:23:04;;;;;;;3.23;0.90;;;11.90;99.70;;;;;;5113589;28;20487;-60
2023/01/06 05:25:30;;;;;;;1.67;0.97;;;11.90;99.80;;;;;;5113945;28;20443;-60
2023/01/06 05:27:57;;;;;;;0.97;0.80;;;12.00;99.80;;;;;;5113851;28;20474;-60
2023/01/06 05:30:25;;;;;;;3.70;0.80;;;12.00;99.70;;;;;;5113792;28;20451;-60
2023/01/06 05:32:52;;;;;;;3.77;0.80;;;12.00;99.70;;;;;;5113390;28;20997;-60
2023/01/06 05:35:19;;;;;;;2.93;0.83;;;12.00;99.70;;;;;;5116139;28;20449;-60
2023/01/06 05:37:46;;;;;;;1.53;1.10;;;12.00;99.60;;;;;;5117941;28;20457;-60
2023/01/06 05:40:12;;;;;;;3.07;1.20;;;11.90;99.70;;;;;;5117511;28;20966;-60
2023/01/06 05:42:39;;;;;;;2.37;1.13;;;11.90;99.90;;;;;;5117463;28;20486;-60
2023/01/06 05:45:07;;;;;;;1.17;0.70;;;11.90;99.90;;;;;;5117416;28;20463;-60
2023/01/06 05:47:35;;;;;;;1.67;0.77;;;11.90;99.90;;;;;;5117540;28;20424;-60
2023/01/06 05:50:02;;;;;;;4.93;0.93;;;11.90;99.90;;;;;;5118441;28;20451;-60
2023/01/06 05:52:28;;;;;;;1.77;1.00;;;11.90;99.90;;;;;;5117389;28;20467;-60
2023/01/06 05:54:55;;;;;;;3.40;0.93;;;11.80;99.90;;;;;;5117743;28;20440;-60
2023/01/06 05:57:22;;;;;;;1.47;0.90;;;11.80;99.90;;;;;;5108888;28;20442;-60
2023/01/06 05:59:49;;;;;;;0.80;0.80;;;11.90;99.90;;;;;;5117513;28;20427;-60
2023/01/06 06:02:15;;;;;;;3.90;1.37;;;11.90;99.90;;;;;;5117207;28;20471;-60
2023/01/06 06:04:45;;;;;;;1.00;1.00;;;11.90;99.90;;;;;;5117157;28;20490;-60
2023/01/06 06:07:12;;;;;;;1.90;0.73;;;11.80;99.90;;;;;;5116969;28;20462;-60
2023/01/06 06:09:38;;;;;;;4.40;1.00;;;11.80;99.90;;;;;;5117654;28;20447;-60
2023/01/06 06:12:05;;;;;;;1.03;0.80;;;11.90;99.90;;;;;;5116751;28;20539;-60
2023/01/06 06:14:32;;;;;;;2.33;0.93;;;11.90;99.90;;;;;;5116708;28;20527;-60
2023/01/06 06:16:59;;;;;;;2.43;0.80;;;11.90;99.90;;;;;;5116727;28;20530;-60
2023/01/06 06:19:26;;;;;;;2.00;0.70;;;12.00;99.90;;;;;;5116550;28;20454;-60
2023/01/06 06:21:54;;;;;;;2.63;1.23;;;12.00;99.70;;;;;;5116582;28;20582;-60
2023/01/06 06:24:20;;;;;;;2.00;1.07;;;12.00;99.60;;;;;;5116163;28;20479;-60
2023/01/06 06:26:47;;;;;;;4.30;0.90;;;12.00;99.60;;;;;;5116523;28;20789;-60
2023/01/06 06:29:14;;;;;;;2.33;1.00;;;12.10;99.70;;;;;;5116396;28;20450;-61
2023/01/06 06:31:40;;;;;;;1.87;0.93;;;12.10;99.50;;;;;;5116457;28;20474;-61
2023/01/06 06:34:07;;;;;;;2.10;0.80;;;12.10;99.50;;;;;;5116376;28;20435;-60
2023/01/06 06:36:34;;;;;;;1.90;0.90;;;12.10;99.30;;;;;;5115989;28;20947;-60
2023/01/06 06:39:02;;;;;;;8.50;1.53;;;12.10;99.40;;;;;;5116356;28;20456;-61
2023/01/06 06:41:28;;;;;;;1.43;1.33;;;12.20;99.30;;;;;;5115979;28;20463;-61
2023/01/06 06:43:55;;;;;;;4.77;1.00;;;12.10;99.30;;;;;;5116388;28;20828;-60
2023/01/06 06:46:22;;;;;;;3.17;0.87;;;12.00;99.30;;;;;;5115881;28;20447;-60
2023/01/06 06:48:49;;;;;;;2.43;0.70;;;12.10;99.50;;;;;;5116283;28;20858;-60
2023/01/06 06:51:19;;;;;;;4.43;0.90;;;12.10;99.60;;;;;;5116112;28;20500;-61
2023/01/06 06:53:46;;;;;;;5.00;1.20;;;12.10;99.60;;;;;;5116038;28;20457;-61
2023/01/06 06:56:16;;;;;;;4.30;0.90;;;12.10;99.70;;;;;;5115938;28;20939;-61
2023/01/06 06:58:43;;;;;;;2.20;1.10;;;12.10;99.80;;;;;;5116336;28;20431;-61
2023/01/06 07:01:13;;;;;;;6.93;1.27;;;12.10;99.80;;;;;;5115937;28;20467;-61
2023/01/06 07:03:40;;;;;;;3.60;1.00;;;12.00;99.80;;;;;;5116315;28;20505;-60
2023/01/06 07:06:09;;;;;;;7.00;1.30;;;12.10;99.80;;;;;;5116503;28;20486;-60
2023/01/06 07:08:36;;;;;;;1.67;0.90;;;12.10;99.80;;;;;;5116535;28;20907;-61
2023/01/06 07:11:03;;;;;;;5.20;1.00;;;12.10;99.80;;;;;;5116788;28;20466;-61
2023/01/06 07:13:32;;;;;;;3.60;1.30;;;12.10;99.80;;;;;;5116329;28;20426;-61
2023/01/06 07:15:58;;;;;;;4.20;1.10;;;12.00;99.90;;;;;;5116068;28;20969;-61
2023/01/06 07:18:25;;;;;;;5.60;1.27;;;12.10;99.90;;;;;;5117256;28;20451;-61
2023/01/06 07:20:52;;;;;;;2.37;1.20;;;12.00;99.90;;;;;;5117554;28;20455;-61
2023/01/06 07:23:20;;;;;;;2.30;0.93;;;12.00;99.90;;;;;;5117230;28;20483;-61
2023/01/06 07:25:51;;;;;;;2.30;0.83;;;12.10;99.90;;;;;;5116147;28;20431;-61
2023/01/06 07:28:18;;;;;;;2.20;0.90;;;12.00;99.90;;;;;;5123154;27;20647;-61
2023/01/06 07:30:46;;;;;;;2.30;1.10;;;12.00;99.90;;;;;;5136581;27;20450;-61
2023/01/06 07:33:12;;;;;;;2.60;1.43;;;12.00;99.90;;;;;;5136765;27;20445;-61
2023/01/06 07:35:39;;;;;;;3.43;1.10;;;12.00;99.90;;;;;;5137257;27;20450;-61
2023/01/06 07:38:07;;;;;;;2.63;0.73;;;12.00;99.90;;;;;;5136802;27;20444;-61
2023/01/06 07:40:35;;;;;;;0.90;0.60;;;12.00;99.90;;;;;;5136345;27;20489;-61
2023/01/06 07:43:04;;;;;;;1.57;0.50;;;12.00;99.90;;;;;;5136072;27;20560;-61
2023/01/06 07:45:31;;;;;;;2.60;1.00;;;12.10;99.90;;;;;;5136233;27;20458;-61
2023/01/06 07:47:59;;;;;;;2.03;1.03;;;12.10;99.90;;;;;;5135947;27;20431;-61
2023/01/06 07:50:26;;;;;;;0.90;0.90;;;12.10;99.90;;;;;;5135730;27;20945;-61
2023/01/06 07:52:52;;;;;;;1.00;0.60;;;12.10;99.90;;;;;;5135633;27;20885;-61
2023/01/06 07:55:19;;;;;;;4.17;0.60;;;12.10;99.90;;;;;;5135590;27;20449;-61
2023/01/06 07:57:46;;;;;;;4.53;0.80;;;12.20;99.90;;;;;;5135331;27;20434;-61
2023/01/06 08:00:13;;;;;;;2.40;0.90;;;12.20;99.90;;;;;;5135248;27;20442;-61
2023/01/06 08:02:40;;;;;;;3.07;0.97;;;12.20;99.90;;;;;;5135311;27;20471;-61
2023/01/06 08:05:09;;;;;;;0.73;0.67;;;12.20;99.90;;;;;;5135333;27;20466;-61
2023/01/06 08:07:35;;;;;;;2.40;0.67;;;12.20;99.90;;;;;;5136415;27;20438;-61
2023/01/06 08:10:02;;;;;;;5.60;1.10;;;12.10;99.90;;;;;;5136240;27;20457;-61
2023/01/06 08:12:29;;;;;;;4.40;0.73;;;12.10;99.90;;;;;;5134774;27;20488;-61
2023/01/06 08:14:56;;;;;;;1.33;0.63;;;12.10;99.90;;;;;;5134620;27;20977;-61
2023/01/06 08:17:23;;;;;;;0.97;0.60;;;12.10;99.90;;;;;;5135023;27;20456;-61
2023/01/06 08:19:49;;;;;;;1.43;0.50;;;12.10;99.90;;;;;;5135649;27;20437;-61
2023/01/06 08:22:17;;;;;;;1.07;0.80;;;12.10;99.90;;;;;;5135191;27;20486;-61
2023/01/06 08:24:44;;;;;;;0.57;0.50;;;12.00;99.90;;;;;;5134872;27;20839;-61
2023/01/06 08:27:11;;;;;;;0.60;0.60;;;12.10;99.90;;;;;;5134995;27;20433;-60
2023/01/06 08:29:37;;;;;;;1.80;0.77;;;12.10;99.90;;;;;;5134848;27;20445;-60
2023/01/06 08:32:04;;;;;;;0.80;0.80;;;12.10;99.90;;;;;;5134645;27;20481;-59
2023/01/06 08:34:31;;;;;;;0.60;0.60;;;12.10;99.90;;;;;;5134725;27;20438;-60
2023/01/06 08:36:58;;;;;;;0.50;0.50;;;12.00;99.90;;;;;;5134862;27;20451;-60
2023/01/06 08:39:26;;;;;;;1.00;0.60;;;12.00;99.90;;;;;;5134642;27;20454;-60
2023/01/06 08:41:53;;;;;;;0.53;0.53;;;12.00;99.90;;;;;;5134406;27;20989;-60
2023/01/06 08:44:20;;;;;;;0.70;0.47;;;12.00;99.90;;;;;;5134436;27;20480;-60
2023/01/06 08:46:46;;;;;;;0.60;0.60;;;12.10;99.90;;;;;;5134603;27;20426;-60
2023/01/06 08:49:13;;;;;;;3.70;1.00;;;12.00;99.90;;;;;;5134428;28;20449;-61
2023/01/06 08:51:40;;;;;;;0.90;0.57;;;12.00;99.90;;;;;;5134390;28;20465;-60
2023/01/06 08:54:07;;;;;;;4.30;0.57;;;12.00;99.90;;;;;;5134337;28;20418;-60
2023/01/06 08:56:35;;;;;;;0.60;0.53;;;12.00;99.90;;;;;;5134238;28;20452;-60
2023/01/06 08:59:03;;;;;;;1.03;0.60;;;12.10;99.90;;;;;;5134292;28;20442;-60
2023/01/06 09:01:31;;;;;;;1.73;0.67;;;12.10;99.90;;;;;;5134299;28;20468;-61
2023/01/06 09:04:00;;;;;;;1.13;0.60;;;12.10;99.90;;;;;;5134357;28;20519;-61
2023/01/06 09:06:27;;;;;;;1.43;0.80;;;12.10;99.90;;;;;;5134267;28;20434;-61
2023/01/06 09:08:55;;;;;;;0.97;0.50;;;12.10;99.90;;;;;;5136196;27;20437;-60
2023/01/06 09:11:22;;;;;;;1.40;0.50;;;12.10;99.90;;;;;;5138727;27;20474;-61
2023/01/06 09:13:50;;;;;;;0.80;0.53;;;12.00;99.90;;;;;;5138955;27;20872;-61
2023/01/06 09:16:18;;;;;;;1.17;0.70;;;11.90;99.90;;;;;;5139071;27;20457;-61
2023/01/06 09:18:48;;;;;;;0.80;0.60;;;11.90;99.90;;;;;;5138775;27;20444;-61
2023/01/06 09:21:16;;;;;;;0.70;0.70;;;11.90;99.90;;;;;;5138804;27;20466;-61
2023/01/06 09:23:43;;;;;;;0.80;0.60;;;11.90;99.90;;;;;;5138660;27;20469;-60
2023/01/06 09:26:10;;;;;;;1.37;0.50;;;11.90;99.90;;;;;;5138693;27;20448;-61
2023/01/06 09:28:37;;;;;;;2.33;1.37;;;11.80;99.90;;;;;;5138673;27;20442;-61
2023/01/06 09:31:05;;;;;;;1.00;0.90;;;11.80;99.90;;;;;;5138074;27;20477;-61
2023/01/06 09:33:32;;;;;;;0.50;0.50;;;11.70;99.90;;;;;;5138687;27;20987;-60
2023/01/06 09:35:58;;;;;;;4.67;0.63;;;11.70;99.90;;;;;;5138516;27;20430;-61
2023/01/06 09:38:27;;;;;;;1.23;0.83;;;11.70;99.90;;;;;;5137690;27;20924;-60
2023/01/06 09:41:13;;;;;;;2.10;0.80;;;11.80;99.90;;;;;;5137225;27;20953;-60
2023/01/06 09:43:47;;;;;;;0.60;0.53;;;11.70;99.90;;;;;;5137660;27;20437;-61
2023/01/06 09:46:18;;;;;;;0.60;0.60;;;11.70;99.90;;;;;;5137679;27;20436;-60
2023/01/06 09:48:56;;;;;;;0.73;0.73;;;11.70;99.90;;;;;;5138279;27;20429;-61
2023/01/06 09:51:27;;;;;;;1.43;0.70;;;11.70;99.90;;;;;;5137638;27;20469;-61
2023/01/06 09:53:59;;;;;;;3.60;1.00;;;11.70;99.90;;;;;;5137711;27;20485;-62
2023/01/06 09:56:26;;;;;;;0.80;0.80;;;11.70;99.90;;;;;;5137745;27;20441;-62
2023/01/06 09:58:58;;;;;;;1.13;1.13;;;11.70;99.90;;;;;;5137755;27;20438;-61
2023/01/06 10:01:32;;;;;;;0.90;0.90;;;11.80;99.90;;;;;;5137205;27;20969;-61
2023/01/06 10:03:59;;;;;;;0.80;0.80;;;11.70;99.90;;;;;;5137456;27;20473;-61
2023/01/06 10:06:33;;;;;;;5.70;1.20;;;11.70;99.90;;;;;;5136954;27;20933;-61
2023/01/06 10:09:12;;;;;;;1.43;1.10;;;11.70;99.90;;;;;;5137419;27;20538;-61
2023/01/06 10:11:51;;;;;;;3.40;1.20;;;11.70;99.90;;;;;;5136891;27;21000;-61
2023/01/06 10:14:27;;;;;;;1.53;0.80;;;11.70;99.90;;;;;;5137142;27;20426;-61
2023/01/06 10:17:08;;;;;;;0.70;0.70;;;11.60;99.90;;;;;;5136858;27;20968;-61
2023/01/06 10:19:50;;;;;;;0.70;0.70;;;11.60;99.90;;;;;;5136750;27;20433;-61
2023/01/06 10:22:27;;;;;;;4.87;1.20;;;11.70;99.90;;;;;;5136885;27;20462;-61
2023/01/06 10:25:00;;;;;;;0.60;0.57;;;11.70;99.90;;;;;;5136819;27;20493;-61
2023/01/06 10:27:35;;;;;;;1.67;1.00;;;11.70;99.90;;;;;;5136919;27;20438;-60
2023/01/06 10:30:04;;;;;;;1.87;0.70;;;11.70;99.90;;;;;;5136900;27;20433;-60
2023/01/06 10:32:34;;;;;;;1.17;0.93;;;11.70;99.90;;;;;;5136864;27;20467;-60
2023/01/06 10:35:02;;;;;;;1.13;0.90;;;11.70;99.90;;;;;;5136698;27;20530;-60
2023/01/06 10:37:37;;;;;;;4.20;1.20;;;11.70;99.90;;;;;;5136750;27;20844;-61
2023/01/06 10:40:17;;;;;;;1.27;0.90;;;11.80;99.90;;;;;;5136312;27;20564;-61
2023/01/06 10:45:32;;;;;;;1.30;1.10;;;11.80;99.90;;;;;;5133551;27;20481;-61
2023/01/06 10:48:01;;;;;;;1.10;1.00;;;11.90;99.90;;;;;;5136551;27;20462;-61
2023/01/06 10:50:28;;;;;;;2.13;0.80;;;11.90;99.90;;;;;;5136077;27;20929;-61
2023/01/06 10:52:55;;;;;;;0.83;0.80;;;11.90;99.90;;;;;;5136351;27;20875;-60
2023/01/06 10:55:34;;;;;;;0.97;0.87;;;11.90;99.90;;;;;;5136045;27;20430;-60
2023/01/06 10:58:13;;;;;;;1.00;0.90;;;12.00;99.90;;;;;;5136294;27;20426;-60
2023/01/06 11:00:54;;;;;;;5.10;1.10;;;12.00;99.90;;;;;;5136298;27;20438;-61
2023/01/06 11:03:22;;;;;;;1.20;1.00;;;12.00;99.90;;;;;;5136252;27;20427;-61
2023/01/06 11:05:59;;;;;;;1.33;1.07;;;12.10;99.90;;;;;;5135886;27;20481;-61
2023/01/06 11:08:27;;;;;;;2.30;1.00;;;12.10;99.90;;;;;;5136213;27;20441;-60
2023/01/06 11:10:57;;;;;;;1.20;1.10;;;12.10;99.90;;;;;;5136171;27;20431;-61
2023/01/06 11:13:27;;;;;;;1.67;1.00;;;12.00;99.90;;;;;;5136326;27;20522;-60
2023/01/06 11:15:54;;;;;;;2.37;1.27;;;12.10;99.90;;;;;;5136290;27;20458;-60
2023/01/06 11:18:26;;;;;;;1.50;1.17;;;12.10;99.90;;;;;;5135975;27;20858;-60
2023/01/06 11:21:16;;;;;;;1.83;1.33;;;12.20;99.90;;;;;;5135978;27;20427;-61
2023/01/06 11:23:45;;;;;;;1.10;1.00;;;12.20;99.90;;;;;;5110597;27;20981;-60
2023/01/06 11:26:18;;;;;;;1.17;1.07;;;12.20;99.90;;;;;;5136548;27;20482;-61
2023/01/06 11:28:46;;;;;;;4.33;1.00;;;12.20;99.90;;;;;;5135868;27;20453;-61
2023/01/06 11:31:19;;;;;;;1.37;1.27;;;12.40;99.90;;;;;;5135312;27;20477;-60
2023/01/06 11:33:50;;;;;;;1.77;1.20;;;12.50;99.90;;;;;;5135085;27;20440;-61
2023/01/06 11:36:18;;;;;;;1.23;1.10;;;12.50;99.90;;;;;;5135798;27;20427;-60
2023/01/06 11:38:47;;;;;;;1.70;1.23;;;12.60;99.90;;;;;;5135759;27;20471;-61
2023/01/06 11:41:24;;;;;;;1.23;0.83;;;12.60;99.90;;;;;;5135216;27;20473;-61
2023/01/06 11:43:54;;;;;;;1.43;1.00;;;12.60;99.90;;;;;;5135681;27;20457;-61
2023/01/06 11:46:24;;;;;;;1.47;1.10;;;12.70;99.90;;;;;;5135504;27;20470;-60
2023/01/06 11:49:01;;;;;;;1.13;1.03;;;12.70;99.90;;;;;;5135175;27;20430;-60
2023/01/06 11:51:44;;;;;;;1.37;1.27;;;12.70;99.90;;;;;;5135396;27;20473;-61
2023/01/06 11:54:23;;;;;;;2.07;1.07;;;12.70;99.90;;;;;;5135307;27;20430;-60
2023/01/06 11:56:57;;;;;;;1.70;1.07;;;12.60;99.90;;;;;;5134980;27;20901;-60
2023/01/06 11:59:28;;;;;;;1.90;1.10;;;12.60;99.90;;;;;;5135237;27;20441;-60
2023/01/06 12:01:59;;;;;;;1.93;1.10;;;12.50;99.90;;;;;;5134718;27;20473;-60
2023/01/06 12:04:32;;;;;;;1.90;1.13;;;12.60;99.90;;;;;;5135094;27;20506;-60
2023/01/06 12:07:05;;;;;;;3.43;1.17;;;12.60;99.90;;;;;;5135224;27;20440;-60
2023/01/06 12:09:36;;;;;;;1.10;0.90;;;12.70;99.90;;;;;;5135092;27;20453;-60
2023/01/06 12:12:07;;;;;;;1.30;0.80;;;12.70;99.90;;;;;;5135174;27;20461;-61
2023/01/06 12:14:37;;;;;;;1.77;1.00;;;12.70;99.90;;;;;;5135469;27;20454;-61
2023/01/06 12:17:12;;;;;;;1.13;1.00;;;12.70;99.90;;;;;;5135509;27;20795;-61
2023/01/06 12:19:46;;;;;;;0.90;0.90;;;12.60;99.90;;;;;;5134951;27;20446;-61
2023/01/06 12:22:22;;;;;;;1.40;1.30;;;12.50;99.90;;;;;;5134795;27;20483;-61
2023/01/06 12:24:51;;;;;;;1.23;1.10;;;12.40;99.90;;;;;;5134415;27;20840;-61
2023/01/06 12:27:27;;;;;;;1.60;1.30;;;12.40;99.90;;;;;;5134723;27;20446;-62
2023/01/06 12:29:58;;;;;;;3.60;1.30;;;12.40;99.90;;;;;;5134372;27;20929;-61
2023/01/06 12:32:27;;;;;;;1.57;1.47;;;12.30;99.90;;;;;;5134728;27;20466;-61
2023/01/06 12:35:01;;;;;;;1.73;1.10;;;12.30;99.90;;;;;;5134907;27;20445;-61
2023/01/06 12:37:34;;;;;;;1.90;1.30;;;12.30;99.90;;;;;;5134648;27;20423;-61
2023/01/06 12:40:08;;;;;;;1.13;1.13;;;12.30;99.90;;;;;;5134257;27;20489;-60
2023/01/06 12:42:38;;;;;;;1.20;1.20;;;12.30;99.90;;;;;;5134575;27;20465;-61
2023/01/06 12:45:12;;;;;;;1.53;1.43;;;12.30;99.90;;;;;;5134228;27;20465;-60
2023/01/06 12:47:44;;;;;;;1.47;1.37;;;12.30;99.90;;;;;;5134495;27;20433;-60
2023/01/06 12:50:20;;;;;;;1.83;1.17;;;12.40;99.90;;;;;;5134069;28;20796;-60
2023/01/06 12:52:51;;;;;;;1.93;1.30;;;12.30;99.90;;;;;;5134444;28;20464;-61
2023/01/06 12:55:25;;;;;;;2.20;1.30;;;12.30;99.90;;;;;;5134063;28;20445;-60
2023/01/06 12:57:58;;;;;;;1.73;1.10;;;12.30;99.90;;;;;;5134638;28;20434;-60
2023/01/06 13:00:37;;;;;;;1.13;1.13;;;12.40;99.90;;;;;;5134817;28;20430;-61
2023/01/06 13:03:46;;;;;;;1.40;1.30;;;12.40;99.90;;;;;;5134000;28;20970;-61
2023/01/06 13:06:38;;;;;;;2.00;1.30;;;12.30;99.90;;;;;;5085756;28;20492;-61
2023/01/06 13:09:39;;;;;;;1.80;1.70;;;12.20;99.90;;;;;;5134275;28;20441;-61